Terminal Aerodrome Forecast
Issued by NWS

Home | Current Version | Previous Version | Text Only | Print | Product List | Glossary On
Versions: 1 2 3 4 5 6 7 8 9 10 11 12 13 14 15 16 17 18 19 20 21 22 23 24 25 26 27 28 29 30
000
FTUS43 KDTX 221100
TAFPTK
TAF
KPTK 221122Z 2212/2312 17005KT P6SM SKC
     FM221500 19009KT P6SM SKC
     FM221800 21011G19KT P6SM SCT200
     FM230100 23010KT P6SM SCT100 BKN200 PROB30 2304/2307 5SM TSRA
      BKN035 OVC060CB
     FM230800 32011KT P6SM OVC022=

USA.gov is the U.S. government's official web portal to all federal, state and local government web resources and services.